createdAt,value
2018-04-27T00:02:23.739Z,85.42
2018-04-27T00:04:53.223Z,85.86
2018-04-27T00:07:21.725Z,85.83
2018-04-27T00:09:50.000Z,86.40
2018-04-27T00:12:18.579Z,85.86
2018-04-27T00:14:46.878Z,86.20
2018-04-27T00:17:15.170Z,87.24
2018-04-27T00:19:43.490Z,86.72
2018-04-27T00:22:11.780Z,86.97
2018-04-27T00:24:40.054Z,87.15
2018-04-27T00:27:08.399Z,86.84
2018-04-27T00:29:36.939Z,88.16
2018-04-27T00:32:05.223Z,87.71
2018-04-27T00:34:33.523Z,87.22
2018-04-27T00:37:01.809Z,87.32
2018-04-27T00:39:30.103Z,87.77
2018-04-27T00:41:58.937Z,87.73
2018-04-27T00:44:27.218Z,89.52
2018-04-27T00:46:55.506Z,88.83
2018-04-27T00:49:23.868Z,88.53
2018-04-27T00:51:52.914Z,89.16
2018-04-27T00:54:21.199Z,88.74
2018-04-27T00:56:50.190Z,88.59
2018-04-27T00:59:18.507Z,88.77
2018-04-27T01:01:46.938Z,89.03
2018-04-27T01:04:15.279Z,89.78
2018-04-27T01:06:44.082Z,89.40
2018-04-27T01:09:12.994Z,89.80
2018-04-27T01:11:41.271Z,89.21
2018-04-27T01:14:09.550Z,89.85
2018-04-27T01:16:37.875Z,90.71
2018-04-27T01:19:06.890Z,91.02
2018-04-27T01:21:35.174Z,90.52
2018-04-27T01:24:03.511Z,90.46
2018-04-27T01:26:31.794Z,90.28
2018-04-27T01:29:00.070Z,89.52
2018-04-27T01:31:28.398Z,88.48
2018-04-27T01:33:56.890Z,88.77
2018-04-27T01:36:25.173Z,88.72
2018-04-27T01:38:53.511Z,88.90
2018-04-27T01:41:21.798Z,89.09
2018-04-27T01:43:50.963Z,89.30
2018-04-27T01:46:19.296Z,89.19
2018-04-27T01:48:47.584Z,89.34
2018-04-27T01:51:17.819Z,89.31
2018-04-27T01:53:46.303Z,89.27
2018-04-27T01:56:14.591Z,90.34
2018-04-27T01:58:42.871Z,90.81
2018-04-27T02:01:11.791Z,90.01
2018-04-27T02:03:40.080Z,90.03
2018-04-27T02:06:08.360Z,89.85
2018-04-27T02:08:36.691Z,90.20
2018-04-27T02:11:04.974Z,89.45
2018-04-27T02:13:33.264Z,89.54
2018-04-27T02:16:01.584Z,90.77
2018-04-27T02:18:29.863Z,89.69
2018-04-27T02:20:58.203Z,89.69
2018-04-27T02:23:28.099Z,89.88
2018-04-27T02:25:56.396Z,90.46
2018-04-27T02:28:24.720Z,90.83
2018-04-27T02:30:53.028Z,90.82
2018-04-27T02:33:21.995Z,91.93
2018-04-27T02:35:50.324Z,91.60
2018-04-27T02:38:18.608Z,92.21
2018-04-27T02:40:46.891Z,92.05
2018-04-27T02:43:15.229Z,92.17
2018-04-27T02:45:43.498Z,91.85
2018-04-27T02:48:11.815Z,91.60
2018-04-27T02:50:40.863Z,91.25
2018-04-27T02:53:09.372Z,91.17
2018-04-27T02:55:39.316Z,91.60
2018-04-27T02:58:07.599Z,91.93
2018-04-27T03:00:35.892Z,92.39
2018-04-27T03:03:04.222Z,92.38
2018-04-27T03:05:32.521Z,92.37
2018-04-27T03:08:00.848Z,91.66
2018-04-27T03:10:29.164Z,91.02
2018-04-27T03:12:57.451Z,88.77
2018-04-27T03:15:26.036Z,87.01
2018-04-27T03:17:54.318Z,87.23
2018-04-27T03:20:22.799Z,87.90
2018-04-27T03:22:51.075Z,88.87
2018-04-27T03:25:19.359Z,88.49
2018-04-27T03:27:47.679Z,89.18
2018-04-27T03:30:15.955Z,89.95
2018-04-27T03:32:44.826Z,91.15
2018-04-27T03:35:13.144Z,91.91
2018-04-27T03:37:41.427Z,91.66
2018-04-27T03:40:10.208Z,91.95
2018-04-27T03:42:38.542Z,92.17
2018-04-27T03:45:06.935Z,91.79
2018-04-27T03:47:35.257Z,92.09
2018-04-27T03:50:03.547Z,92.71
2018-04-27T03:52:32.865Z,92.81
2018-04-27T03:55:01.679Z,92.96
2018-04-27T03:57:30.532Z,93.06
2018-04-27T04:00:16.452Z,93.26
2018-04-27T04:03:02.283Z,93.79
2018-04-27T04:05:32.199Z,93.84
2018-04-27T04:08:00.487Z,93.23
2018-04-27T04:10:29.984Z,93.21
2018-04-27T04:12:59.023Z,93.47
2018-04-27T04:15:27.309Z,93.71
2018-04-27T04:17:55.623Z,93.88
2018-04-27T04:20:23.899Z,93.91
2018-04-27T04:22:52.180Z,94.10
2018-04-27T04:25:20.486Z,94.21
2018-04-27T04:27:48.783Z,94.73
2018-04-27T04:30:17.116Z,94.43
2018-04-27T04:32:45.739Z,93.91
2018-04-27T04:35:14.207Z,93.59
2018-04-27T04:37:42.510Z,93.59
2018-04-27T04:40:10.799Z,93.25
2018-04-27T04:42:39.115Z,92.98
2018-04-27T04:45:07.460Z,92.31
2018-04-27T04:47:36.039Z,92.92
2018-04-27T04:50:04.347Z,92.25
2018-04-27T04:52:33.447Z,91.92
2018-04-27T04:55:01.708Z,90.05
2018-04-27T04:57:29.983Z,89.69
2018-04-27T04:59:58.264Z,87.15
2018-04-27T05:02:26.620Z,83.44
2018-04-27T05:04:55.423Z,82.05
2018-04-27T05:07:24.471Z,76.54
2018-04-27T05:09:52.884Z,75.96
2018-04-27T05:12:21.437Z,75.47
2018-04-27T05:14:49.723Z,82.76
2018-04-27T05:17:18.120Z,80.50
2018-04-27T05:20:00.935Z,77.78
2018-04-27T05:22:29.532Z,77.44
2018-04-27T05:24:57.927Z,78.07
2018-04-27T05:27:26.212Z,74.93
2018-04-27T05:29:55.083Z,76.84
2018-04-27T05:32:23.591Z,78.62
2018-04-27T05:34:51.867Z,75.90
2018-04-27T05:37:20.952Z,74.90
2018-04-27T05:39:49.240Z,76.35
2018-04-27T05:42:17.535Z,72.34
2018-04-27T05:44:45.863Z,70.43
2018-04-27T05:47:14.148Z,66.16
2018-04-27T05:49:42.451Z,62.26
2018-04-27T05:52:11.311Z,62.87
2018-04-27T05:54:39.775Z,60.42
2018-04-27T05:57:08.071Z,57.40
2018-04-27T05:59:36.364Z,56.17
2018-04-27T06:02:04.690Z,52.67
2018-04-27T06:04:33.064Z,53.94
2018-04-27T06:07:01.284Z,51.76
2018-04-27T06:09:29.604Z,51.80
2018-04-27T06:11:57.892Z,51.65
2018-04-27T06:14:26.179Z,50.10
2018-04-27T06:16:54.719Z,50.26
2018-04-27T06:19:23.223Z,48.78
2018-04-27T06:21:51.567Z,45.72
2018-04-27T06:24:19.899Z,46.26
2018-04-27T06:26:48.179Z,46.78
2018-04-27T06:29:16.463Z,44.42
2018-04-27T06:31:44.998Z,45.05
2018-04-27T06:34:13.747Z,43.07
2018-04-27T06:36:42.036Z,42.79
2018-04-27T06:39:10.355Z,40.59
2018-04-27T06:41:39.303Z,40.22
2018-04-27T06:44:07.649Z,39.74
2018-04-27T06:46:35.932Z,37.61
2018-04-27T06:49:04.216Z,36.54
2018-04-27T06:51:32.528Z,34.56
2018-04-27T06:54:01.592Z,34.46
2018-04-27T06:56:29.954Z,31.81
2018-04-27T06:58:58.374Z,31.33
2018-04-27T07:01:26.986Z,32.61
2018-04-27T07:03:55.671Z,31.09
2018-04-27T07:06:23.956Z,30.15
2018-04-27T07:08:52.244Z,30.47
2018-04-27T07:11:21.228Z,29.57
2018-04-27T07:13:49.515Z,32.55
2018-04-27T07:16:17.802Z,33.67
2018-04-27T07:18:46.759Z,34.88
2018-04-27T07:21:15.042Z,35.80
2018-04-27T07:23:43.501Z,33.54
2018-04-27T07:26:11.832Z,31.82
2018-04-27T07:28:40.119Z,33.93
2018-04-27T07:31:08.406Z,32.47
2018-04-27T07:33:36.719Z,30.71
2018-04-27T07:36:05.474Z,29.20
2018-04-27T07:38:34.151Z,28.94
2018-04-27T07:41:02.589Z,29.33
2018-04-27T07:43:31.854Z,30.27
2018-04-27T07:46:00.888Z,27.46
2018-04-27T07:48:29.251Z,28.53
2018-04-27T07:50:58.303Z,30.79
2018-04-27T07:53:26.682Z,30.03
2018-04-27T07:55:55.008Z,28.83
2018-04-27T07:58:23.295Z,26.44
2018-04-27T08:00:51.582Z,30.28
2018-04-27T08:03:19.902Z,26.88
2018-04-27T08:05:48.323Z,23.82
2018-04-27T08:08:16.767Z,24.34
2018-04-27T08:10:45.122Z,25.56
2018-04-27T08:13:13.414Z,25.28
2018-04-27T08:15:41.731Z,24.20
2018-04-27T08:18:10.275Z,25.10
2018-04-27T08:20:38.579Z,26.32
2018-04-27T08:23:06.918Z,24.16
2018-04-27T08:25:35.223Z,23.86
2018-04-27T08:28:04.052Z,21.92
2018-04-27T08:30:34.003Z,21.97
2018-04-27T08:33:02.316Z,21.62
2018-04-27T08:35:30.623Z,21.59
2018-04-27T08:37:58.931Z,19.68
2018-04-27T08:40:27.299Z,22.17
2018-04-27T08:42:55.619Z,22.42
2018-04-27T08:45:23.959Z,19.80
2018-04-27T08:47:52.239Z,20.16
2018-04-27T08:50:20.722Z,20.07
2018-04-27T08:52:48.926Z,18.37
2018-04-27T08:55:17.208Z,21.68
2018-04-27T08:57:45.523Z,22.24
2018-04-27T09:00:13.815Z,21.69
2018-04-27T09:02:42.680Z,23.79
2018-04-27T09:05:10.951Z,23.99
2018-04-27T09:07:40.010Z,22.37
2018-04-27T09:10:08.307Z,20.78
2018-04-27T09:12:36.621Z,22.22
2018-04-27T09:15:05.556Z,22.89
2018-04-27T09:17:34.255Z,22.15
2018-04-27T09:20:02.543Z,19.31
2018-04-27T09:22:32.359Z,19.24
2018-04-27T09:25:00.687Z,18.21
2018-04-27T09:27:28.987Z,17.44
2018-04-27T09:29:57.270Z,20.33
2018-04-27T09:32:26.206Z,19.31
2018-04-27T09:34:54.495Z,22.88
2018-04-27T09:37:23.423Z,21.93
2018-04-27T09:39:52.191Z,22.66
2018-04-27T09:42:20.470Z,20.53
2018-04-27T09:44:48.746Z,20.87
2018-04-27T09:47:17.398Z,20.79
2018-04-27T09:49:46.445Z,19.53
2018-04-27T09:52:14.735Z,20.02
2018-04-27T09:54:43.423Z,21.09
2018-04-27T09:57:11.994Z,21.80
2018-04-27T09:59:40.326Z,22.81
2018-04-27T10:02:09.179Z,21.78
2018-04-27T10:04:37.459Z,22.38
2018-04-27T10:07:05.803Z,22.08
2018-04-27T10:09:34.118Z,20.82
2018-04-27T10:12:02.399Z,20.56
2018-04-27T10:14:30.738Z,21.06
2018-04-27T10:16:59.027Z,19.59
2018-04-27T10:19:27.317Z,20.48
2018-04-27T10:21:55.627Z,18.83
2018-04-27T10:24:23.907Z,17.83
2018-04-27T10:26:52.327Z,18.00
2018-04-27T10:29:20.615Z,18.84
2018-04-27T10:31:48.915Z,20.52
2018-04-27T10:34:17.779Z,19.54
2018-04-27T10:36:46.067Z,15.84
2018-04-27T10:39:14.376Z,18.15
2018-04-27T10:41:42.685Z,17.26
2018-04-27T10:44:10.979Z,15.13
2018-04-27T10:46:39.291Z,17.13
2018-04-27T10:49:07.574Z,18.28
2018-04-27T10:51:35.910Z,16.81
2018-04-27T10:54:05.175Z,14.70
2018-04-27T10:56:33.455Z,13.86
2018-04-27T10:59:01.781Z,13.82
2018-04-27T11:01:30.064Z,16.65
2018-04-27T11:03:58.360Z,17.25
2018-04-27T11:06:26.732Z,15.09
2018-04-27T11:08:56.139Z,16.50
2018-04-27T11:11:24.431Z,15.40
2018-04-27T11:13:52.775Z,19.61
2018-04-27T11:16:21.080Z,18.17
2018-04-27T11:18:49.923Z,15.48
2018-04-27T11:21:18.330Z,15.63
2018-04-27T11:23:47.331Z,15.51
2018-04-27T11:26:15.619Z,15.41
2018-04-27T11:28:44.487Z,13.86
2018-04-27T11:31:13.790Z,12.87
2018-04-27T11:33:42.163Z,12.01
2018-04-27T11:36:10.919Z,13.61
2018-04-27T11:38:39.525Z,12.91
2018-04-27T11:41:08.036Z,13.64
2018-04-27T11:43:36.343Z,13.05
2018-04-27T11:46:05.315Z,13.02
2018-04-27T11:48:33.603Z,14.68
2018-04-27T11:51:01.947Z,14.32
2018-04-27T11:53:30.239Z,13.53
2018-04-27T11:55:58.551Z,13.06
2018-04-27T11:58:27.515Z,13.30
2018-04-27T12:00:56.146Z,13.67
2018-04-27T12:03:24.759Z,16.24
2018-04-27T12:05:53.095Z,17.52
2018-04-27T12:08:22.123Z,17.15
2018-04-27T12:10:50.458Z,14.37
2018-04-27T12:13:19.548Z,14.27
2018-04-27T12:15:48.255Z,11.85
2018-04-27T12:18:16.878Z,12.23
2018-04-27T12:20:45.217Z,14.31
2018-04-27T12:23:13.499Z,14.64
2018-04-27T12:25:41.790Z,14.00
2018-04-27T12:28:10.166Z,13.06
2018-04-27T12:30:38.447Z,14.49
2018-04-27T12:33:06.791Z,14.78
2018-04-27T12:35:35.471Z,14.07
2018-04-27T12:38:03.891Z,14.01
2018-04-27T12:40:32.763Z,13.59
2018-04-27T12:43:01.390Z,16.08
2018-04-27T12:45:29.681Z,13.94
2018-04-27T12:47:58.334Z,13.49
2018-04-27T12:50:26.621Z,18.92
2018-04-27T12:52:54.928Z,17.65
2018-04-27T12:55:24.015Z,17.94
2018-04-27T12:57:52.305Z,16.48
2018-04-27T13:00:20.811Z,14.94
2018-04-27T13:02:49.149Z,14.87
2018-04-27T13:05:18.107Z,14.60
2018-04-27T13:07:46.684Z,13.19
2018-04-27T13:10:15.484Z,12.54
2018-04-27T13:12:43.771Z,15.22
2018-04-27T13:15:12.359Z,15.71
2018-04-27T13:17:40.715Z,13.93
2018-04-27T13:20:09.133Z,14.78
2018-04-27T13:22:37.436Z,14.99
2018-04-27T13:25:06.912Z,14.36
2018-04-27T13:27:35.826Z,13.42
2018-04-27T13:30:04.116Z,11.87
2018-04-27T13:32:32.414Z,13.03
2018-04-27T13:35:00.731Z,11.87
2018-04-27T13:37:29.852Z,12.16
2018-04-27T13:39:58.948Z,12.04
2018-04-27T13:42:28.123Z,11.01
2018-04-27T13:44:56.614Z,11.06
2018-04-27T13:47:25.439Z,14.37
2018-04-27T13:49:54.044Z,16.58
2018-04-27T13:52:22.959Z,17.17
2018-04-27T13:54:51.910Z,14.25
2018-04-27T13:57:20.895Z,14.76
2018-04-27T13:59:49.236Z,14.46
2018-04-27T14:02:18.083Z,12.59
2018-04-27T14:04:46.823Z,15.75
2018-04-27T14:07:17.579Z,15.21
2018-04-27T14:09:46.807Z,13.84
2018-04-27T14:12:15.110Z,15.14
2018-04-27T14:14:43.455Z,14.20
2018-04-27T14:17:11.847Z,13.94
2018-04-27T14:19:40.567Z,12.85
2018-04-27T14:22:09.183Z,12.69
2018-04-27T14:24:37.976Z,12.72
2018-04-27T14:27:06.755Z,14.77
2018-04-27T14:29:35.338Z,14.83
2018-04-27T14:32:04.135Z,14.72
2018-04-27T14:34:32.567Z,15.95
2018-04-27T14:37:00.899Z,16.54
2018-04-27T14:39:29.187Z,17.35
2018-04-27T14:41:57.476Z,18.55
2018-04-27T14:44:25.815Z,19.80
2018-04-27T14:46:54.864Z,20.16
2018-04-27T14:49:23.235Z,18.27
2018-04-27T14:51:52.723Z,17.81
2018-04-27T14:54:21.895Z,16.70
2018-04-27T14:56:50.229Z,17.47
2018-04-27T14:59:18.598Z,19.46
2018-04-27T15:01:46.935Z,20.86
2018-04-27T15:04:15.267Z,20.97
2018-04-27T15:06:43.599Z,20.69
2018-04-27T15:09:12.399Z,19.14
2018-04-27T15:11:40.686Z,19.03
2018-04-27T15:14:08.991Z,18.96
2018-04-27T15:16:37.275Z,18.67
2018-04-27T15:19:05.684Z,18.30
2018-04-27T15:21:33.984Z,19.16
2018-04-27T15:24:02.340Z,18.72
2018-04-27T15:26:30.969Z,19.68
2018-04-27T15:28:59.671Z,19.54
2018-04-27T15:31:27.951Z,19.14
2018-04-27T15:33:56.279Z,17.52
2018-04-27T15:36:24.563Z,17.38
2018-04-27T15:38:52.848Z,16.56
2018-04-27T15:41:21.183Z,18.37
2018-04-27T15:43:49.512Z,19.64
2018-04-27T15:46:17.801Z,18.54
2018-04-27T15:48:46.126Z,17.69
2018-04-27T15:51:14.406Z,17.19
2018-04-27T15:53:43.450Z,16.95
2018-04-27T15:56:12.247Z,17.78
2018-04-27T15:58:40.556Z,17.84
2018-04-27T16:01:08.907Z,17.66
2018-04-27T16:03:37.251Z,18.08
2018-04-27T16:06:05.530Z,18.51
2018-04-27T16:08:33.816Z,18.83
2018-04-27T16:11:02.155Z,20.10
2018-04-27T16:14:05.843Z,19.92
2018-04-27T16:16:35.355Z,19.38
2018-04-27T16:19:04.359Z,20.20
2018-04-27T16:21:32.647Z,19.36
2018-04-27T16:24:00.963Z,19.82
2018-04-27T16:26:31.594Z,21.12
2018-04-27T16:28:59.963Z,21.27
2018-04-27T16:31:28.277Z,21.33
2018-04-27T16:33:58.096Z,22.42
2018-04-27T16:36:26.463Z,22.66
2018-04-27T16:38:54.742Z,23.43
2018-04-27T16:41:23.057Z,23.51
2018-04-27T16:43:51.371Z,23.03
2018-04-27T16:46:19.663Z,23.26
2018-04-27T16:48:47.949Z,23.60
2018-04-27T16:51:16.287Z,23.77
2018-04-27T16:53:44.582Z,24.09
2018-04-27T16:56:12.876Z,24.41
2018-04-27T16:58:41.691Z,24.41
2018-04-27T17:01:10.011Z,25.40
2018-04-27T17:03:38.346Z,26.32
2018-04-27T17:06:07.398Z,27.06
2018-04-27T17:08:35.700Z,28.66
2018-04-27T17:11:04.685Z,29.29
2018-04-27T17:13:33.081Z,30.41
2018-04-27T17:16:01.939Z,29.83
2018-04-27T17:18:31.142Z,28.98
2018-04-27T17:20:59.505Z,29.50
2018-04-27T17:23:27.892Z,28.55
2018-04-27T17:25:56.823Z,29.42
2018-04-27T17:28:25.213Z,29.64
2018-04-27T17:30:53.507Z,30.49
2018-04-27T17:33:21.847Z,30.56
2018-04-27T17:35:50.147Z,31.54
2018-04-27T17:38:18.435Z,32.07
2018-04-27T17:40:47.572Z,32.87
2018-04-27T17:43:15.855Z,33.71
2018-04-27T17:45:44.211Z,34.54
2018-04-27T17:48:12.504Z,35.64
2018-04-27T17:50:40.763Z,35.22
2018-04-27T17:53:09.051Z,37.16
2018-04-27T17:55:37.458Z,37.12
2018-04-27T17:58:06.786Z,37.59
2018-04-27T18:00:35.076Z,37.27
2018-04-27T18:03:03.427Z,36.68
2018-04-27T18:05:31.719Z,36.75
2018-04-27T18:07:59.999Z,37.56
2018-04-27T18:10:28.471Z,38.09
2018-04-27T18:12:56.988Z,38.49
2018-04-27T18:15:25.323Z,37.01
2018-04-27T18:17:53.631Z,36.12
2018-04-27T18:20:21.959Z,38.09
2018-04-27T18:22:50.484Z,37.49
2018-04-27T18:25:19.692Z,37.79
2018-04-27T18:27:47.999Z,34.87
2018-04-27T18:30:16.689Z,33.75
2018-04-27T18:32:45.058Z,30.39
2018-04-27T18:35:13.439Z,29.53
2018-04-27T18:37:41.827Z,32.29
2018-04-27T18:40:10.139Z,29.59
2018-04-27T18:42:38.541Z,31.11
2018-04-27T18:45:06.775Z,28.15
2018-04-27T18:47:35.066Z,26.12
2018-04-27T18:50:03.380Z,26.48
2018-04-27T18:52:32.204Z,27.43
2018-04-27T18:55:00.739Z,27.54
2018-04-27T18:57:29.592Z,27.57
2018-04-27T18:59:57.999Z,28.14
2018-04-27T19:02:26.359Z,28.64
2018-04-27T19:04:54.644Z,28.62
2018-04-27T19:07:22.973Z,29.11
2018-04-27T19:09:51.299Z,30.02
2018-04-27T19:12:19.722Z,30.45
2018-04-27T19:14:48.776Z,30.62
2018-04-27T19:17:18.376Z,31.17
2018-04-27T19:19:46.691Z,31.65
2018-04-27T19:22:27.818Z,32.99
2018-04-27T19:24:56.121Z,32.46
2018-04-27T19:27:24.418Z,32.98
2018-04-27T19:29:52.772Z,32.43
2018-04-27T19:32:21.086Z,32.84
2018-04-27T19:34:49.430Z,33.23
2018-04-27T19:37:17.731Z,34.41
2018-04-27T19:39:46.024Z,35.58
2018-04-27T19:42:14.317Z,36.88
2018-04-27T19:44:42.679Z,37.14
2018-04-27T19:47:10.968Z,36.90
2018-04-27T19:49:39.259Z,38.65
2018-04-27T19:52:07.611Z,38.08
2018-04-27T19:54:35.899Z,38.52
2018-04-27T19:57:04.185Z,38.45
2018-04-27T19:59:32.862Z,40.98
2018-04-27T20:02:01.149Z,40.93
2018-04-27T20:04:29.695Z,40.90
2018-04-27T20:06:58.506Z,40.00
2018-04-27T20:09:32.694Z,39.89
2018-04-27T20:12:01.188Z,39.58
2018-04-27T20:14:44.464Z,40.13
2018-04-27T20:17:13.719Z,39.58
2018-04-27T20:19:47.070Z,40.07
2018-04-27T20:22:21.595Z,41.77
2018-04-27T20:24:49.911Z,40.33
2018-04-27T20:27:20.167Z,39.49
2018-04-27T20:29:49.186Z,39.98
2018-04-27T20:32:18.215Z,39.91
2018-04-27T20:34:46.587Z,39.22
2018-04-27T20:37:15.115Z,40.23
2018-04-27T20:39:44.479Z,38.40
2018-04-27T20:42:12.868Z,37.88
2018-04-27T20:44:41.427Z,38.09
2018-04-27T20:47:10.335Z,37.00
2018-04-27T20:49:38.719Z,37.39
2018-04-27T20:52:07.005Z,39.13
2018-04-27T20:54:35.963Z,37.68
2018-04-27T20:57:06.028Z,37.88
2018-04-27T20:59:34.796Z,38.36
2018-04-27T21:02:03.092Z,38.01
2018-04-27T21:04:31.502Z,37.71
2018-04-27T21:07:00.707Z,38.58
2018-04-27T21:09:29.004Z,39.81
2018-04-27T21:11:57.327Z,39.78
2018-04-27T21:14:25.620Z,39.83
2018-04-27T21:16:53.936Z,39.02
2018-04-27T21:19:22.272Z,39.55
2018-04-27T21:21:50.563Z,39.18
2018-04-27T21:24:22.095Z,40.33
2018-04-27T21:26:50.384Z,39.95
2018-04-27T21:29:19.592Z,40.68
2018-04-27T21:31:47.932Z,41.89
2018-04-27T21:34:17.143Z,41.68
2018-04-27T21:36:49.204Z,42.11
2018-04-27T21:39:24.966Z,42.60
2018-04-27T21:41:56.383Z,41.26
2018-04-27T21:44:30.087Z,40.98
2018-04-27T22:00:31.771Z,45.18
2018-04-27T22:03:06.254Z,46.13
2018-04-27T22:19:03.039Z,48.41
2018-04-27T22:21:34.703Z,48.90
2018-04-27T22:24:04.463Z,49.19
2018-04-27T22:26:37.291Z,48.48
2018-04-27T22:42:55.978Z,49.50
2018-04-27T22:45:36.671Z,50.52
2018-04-27T22:48:10.547Z,50.59
2018-04-27T22:50:47.260Z,50.48
2018-04-27T22:53:15.567Z,50.31
2018-04-27T22:55:43.864Z,50.35
2018-04-27T22:58:13.057Z,50.57
2018-04-27T23:00:53.023Z,50.70
2018-04-27T23:03:22.835Z,51.29
2018-04-27T23:05:53.863Z,50.66
2018-04-27T23:08:22.171Z,50.78
2018-04-27T23:11:21.198Z,51.06
2018-04-27T23:27:38.586Z,56.09
2018-04-27T23:30:07.608Z,56.99
2018-04-27T23:32:37.579Z,57.35
2018-04-27T23:35:05.919Z,57.60
2018-04-27T23:37:34.979Z,58.74
2018-04-27T23:40:03.423Z,59.25
2018-04-27T23:42:32.428Z,59.99
2018-04-27T23:45:00.715Z,59.96
2018-04-27T23:47:29.046Z,60.43
2018-04-27T23:49:57.339Z,61.10
2018-04-27T23:52:25.618Z,60.88
2018-04-27T23:54:53.977Z,60.65
2018-04-27T23:57:24.483Z,61.49
2018-04-27T23:59:55.355Z,61.74
